Time;durP1;ratioP1;P1;durP2;ratioP2;P2;SDS_P1;SDS_P2;PMS_P1;PMS_P2;Temp;Humidity;BMP_temperature;BMP_pressure;BME280_temperature;BME280_humidity;BME280_pressure;Samples;Min_cycle;Max_cycle;Signal;HPM_P1;HPM_P2
2024/03/12 00:01:50;;;;;;;2.50;2.20;;;;;;;6.43;100.00;97711.25;4974507;28;20233;-78
2024/03/12 00:04:16;;;;;;;2.37;2.00;;;;;;;6.46;100.00;97708.41;4975786;28;20235;-77
2024/03/12 00:06:43;;;;;;;4.03;2.33;;;;;;;6.48;100.00;97713.59;4976005;28;20216;-77
2024/03/12 00:09:10;;;;;;;2.60;1.97;;;;;;;6.44;100.00;97712.91;4976444;28;20216;-78
2024/03/12 00:11:36;;;;;;;2.20;1.97;;;;;;;6.33;100.00;97715.31;4975649;28;20244;-77
2024/03/12 00:14:04;;;;;;;3.50;1.87;;;;;;;6.28;100.00;97717.38;4976076;28;20204;-77
2024/03/12 00:16:31;;;;;;;2.53;1.73;;;;;;;6.24;100.00;97713.22;4976058;28;20244;-77
2024/03/12 00:18:57;;;;;;;1.97;1.77;;;;;;;6.20;100.00;97714.38;4975879;28;20587;-77
2024/03/12 00:21:25;;;;;;;2.60;2.13;;;;;;;6.23;100.00;97718.59;4975350;28;20704;-77
2024/03/12 00:23:52;;;;;;;2.93;2.00;;;;;;;6.19;100.00;97723.19;4975564;28;20210;-77
2024/03/12 00:26:19;;;;;;;3.07;2.40;;;;;;;6.18;100.00;97726.72;4975620;28;20273;-77
2024/03/12 00:28:47;;;;;;;2.27;1.93;;;;;;;6.13;100.00;97723.53;4975485;28;20492;-78
2024/03/12 00:31:16;;;;;;;3.27;2.07;;;;;;;6.10;100.00;97723.69;4975286;28;20232;-78
2024/03/12 00:33:43;;;;;;;2.23;1.93;;;;;;;6.09;100.00;97729.88;4975360;28;20334;-77
2024/03/12 00:36:13;;;;;;;3.57;1.90;;;;;;;6.08;100.00;97722.94;4975337;28;20618;-77
2024/03/12 00:38:39;;;;;;;2.70;1.93;;;;;;;6.06;100.00;97727.44;4974509;28;20642;-77
2024/03/12 00:41:06;;;;;;;2.33;1.70;;;;;;;6.12;100.00;97727.06;4973883;28;20246;-76
2024/03/12 00:43:33;;;;;;;2.83;1.60;;;;;;;6.11;100.00;97728.00;4973744;28;20648;-78
2024/03/12 00:46:01;;;;;;;3.37;1.87;;;;;;;6.09;100.00;97724.63;4974075;28;20268;-76
2024/03/12 00:48:29;;;;;;;3.20;1.97;;;;;;;6.03;100.00;97732.84;4973903;28;20213;-77
2024/03/12 00:50:55;;;;;;;2.43;1.73;;;;;;;6.00;100.00;97730.41;4988294;28;20235;-77
2024/03/12 00:53:23;;;;;;;2.90;2.10;;;;;;;6.01;100.00;97728.63;4989733;28;20244;-77
2024/03/12 00:55:49;;;;;;;2.80;1.93;;;;;;;5.86;100.00;97732.97;4985306;28;20320;-77
2024/03/12 00:58:19;;;;;;;3.37;1.90;;;;;;;5.74;100.00;97736.25;4974068;28;20218;-77
2024/03/12 01:00:48;;;;;;;3.13;2.40;;;;;;;5.66;100.00;97738.47;4973351;28;20721;-77
2024/03/12 01:03:17;;;;;;;3.60;2.70;;;;;;;5.64;100.00;97744.72;4973429;28;20215;-77
2024/03/12 01:05:46;;;;;;;4.00;2.70;;;;;;;5.62;100.00;97739.56;4973183;28;20253;-77
2024/03/12 01:08:13;;;;;;;3.27;2.83;;;;;;;5.53;100.00;97744.47;4973195;28;20250;-77
2024/03/12 01:10:40;;;;;;;4.03;2.77;;;;;;;5.41;100.00;97742.50;4972983;28;20231;-79
2024/03/12 01:13:08;;;;;;;3.50;2.67;;;;;;;5.30;100.00;97745.72;4973086;28;20226;-77
2024/03/12 01:15:35;;;;;;;3.30;2.57;;;;;;;5.23;100.00;97754.84;4973037;28;20211;-77
2024/03/12 01:18:03;;;;;;;2.97;2.70;;;;;;;5.10;100.00;97759.06;4973188;28;20269;-77
2024/03/12 01:20:34;;;;;;;3.10;2.80;;;;;;;5.07;100.00;97759.22;4972617;28;20230;-77
2024/03/12 01:23:02;;;;;;;3.23;2.60;;;;;;;5.05;100.00;97766.31;4973476;28;20202;-79
2024/03/12 01:25:30;;;;;;;4.63;2.50;;;;;;;4.95;100.00;97770.34;4973234;28;20224;-77
2024/03/12 01:27:57;;;;;;;3.50;2.73;;;;;;;4.89;100.00;97768.03;4973095;28;20637;-77
2024/03/12 01:30:27;;;;;;;3.00;2.60;;;;;;;4.89;100.00;97767.22;4972639;28;20231;-77
2024/03/12 01:32:54;;;;;;;2.80;2.40;;;;;;;4.84;100.00;97767.44;4972850;28;20281;-77
2024/03/12 01:35:22;;;;;;;2.80;2.43;;;;;;;4.81;100.00;97772.84;4973135;28;20218;-77
2024/03/12 01:37:51;;;;;;;3.33;2.87;;;;;;;4.81;100.00;97771.97;4972878;28;20693;-77
2024/03/12 01:40:22;;;;;;;3.07;2.40;;;;;;;4.72;100.00;97775.09;4972411;28;20208;-77
2024/03/12 01:42:49;;;;;;;3.17;2.63;;;;;;;4.71;100.00;97776.84;4973103;28;20220;-77
2024/03/12 01:45:17;;;;;;;3.27;2.43;;;;;;;4.66;100.00;97773.66;4972830;28;20218;-78
2024/03/12 01:47:45;;;;;;;4.17;2.90;;;;;;;4.68;100.00;97774.41;4972791;28;20226;-77
2024/03/12 01:50:12;;;;;;;2.53;2.33;;;;;;;4.67;100.00;97777.94;4972312;28;20707;-77
2024/03/12 01:52:39;;;;;;;2.50;2.30;;;;;;;4.65;100.00;97777.16;4972649;28;20242;-77
2024/03/12 01:55:06;;;;;;;3.43;2.67;;;;;;;4.62;100.00;97777.34;4972679;28;20222;-76
2024/03/12 01:57:33;;;;;;;5.73;2.70;;;;;;;4.61;100.00;97786.13;4973191;28;20214;-79
2024/03/12 02:00:00;;;;;;;3.00;2.30;;;;;;;4.56;100.00;97777.66;4972417;28;20304;-77
2024/03/12 02:02:27;;;;;;;3.90;2.67;;;;;;;4.55;100.00;97783.81;4972166;28;20564;-77
2024/03/12 02:04:53;;;;;;;3.10;2.70;;;;;;;4.49;100.00;97793.72;4972386;28;20693;-79
2024/03/12 02:07:20;;;;;;;4.43;2.60;;;;;;;4.46;100.00;97797.34;4972686;28;20331;-77
2024/03/12 02:09:46;;;;;;;4.07;2.73;;;;;;;4.47;100.00;97792.97;4972604;28;20210;-77
2024/03/12 02:12:16;;;;;;;2.73;2.43;;;;;;;4.47;100.00;97792.97;4972129;28;20242;-77
2024/03/12 02:14:44;;;;;;;3.57;2.73;;;;;;;4.47;100.00;97793.78;4972477;28;20211;-76
2024/03/12 02:17:11;;;;;;;3.37;2.80;;;;;;;4.46;100.00;97797.34;4972581;28;20214;-76
2024/03/12 02:19:37;;;;;;;3.23;2.90;;;;;;;4.44;100.00;97799.19;4972490;28;20211;-76
2024/03/12 02:22:05;;;;;;;4.23;2.80;;;;;;;4.49;100.00;97791.97;4972215;28;20245;-76
2024/03/12 02:24:33;;;;;;;3.17;2.83;;;;;;;4.52;100.00;97794.41;4972371;28;20213;-76
2024/03/12 02:26:59;;;;;;;3.70;3.17;;;;;;;4.46;100.00;97797.34;4972306;28;20206;-76
2024/03/12 02:29:26;;;;;;;3.80;2.53;;;;;;;4.46;100.00;97799.13;4972255;28;20222;-77
2024/03/12 02:31:53;;;;;;;5.17;3.03;;;;;;;4.45;100.00;97800.88;4972228;28;20614;-77
2024/03/12 02:34:19;;;;;;;3.20;2.83;;;;;;;4.44;100.00;97801.81;4972453;28;20234;-76
2024/03/12 02:36:46;;;;;;;3.70;2.70;;;;;;;4.42;100.00;97808.03;4972274;28;20230;-77
2024/03/12 02:39:14;;;;;;;4.90;3.10;;;;;;;4.35;100.00;97804.88;4972264;28;20233;-76
2024/03/12 02:41:42;;;;;;;4.97;2.97;;;;;;;4.32;100.00;97818.13;4971844;28;20257;-76
2024/03/12 02:44:09;;;;;;;5.57;3.20;;;;;;;4.27;100.00;97812.25;4971946;28;20211;-77
2024/03/12 02:46:36;;;;;;;4.30;2.67;;;;;;;4.31;100.00;97811.19;4972299;28;20247;-77
2024/03/12 02:49:03;;;;;;;3.23;2.57;;;;;;;4.27;100.00;97812.25;4972622;28;20293;-77
2024/03/12 02:51:29;;;;;;;3.47;2.77;;;;;;;4.32;100.00;97812.03;4971913;28;20316;-76
2024/03/12 02:53:56;;;;;;;4.60;2.90;;;;;;;4.30;100.00;97812.13;4979994;28;20243;-77
2024/03/12 02:56:22;;;;;;;3.03;2.77;;;;;;;4.37;100.00;97818.75;4989155;28;20211;-77
2024/03/12 02:58:50;;;;;;;5.30;3.10;;;;;;;4.35;100.00;97815.34;4988864;28;20221;-77
2024/03/12 03:01:16;;;;;;;3.67;2.50;;;;;;;4.33;100.00;97805.91;4976023;28;20254;-77
2024/03/12 03:03:45;;;;;;;4.87;2.70;;;;;;;4.29;100.00;97804.34;4975528;28;20207;-77
2024/03/12 03:06:13;;;;;;;4.27;2.90;;;;;;;4.29;100.00;97805.19;4975613;28;20582;-77
2024/03/12 03:08:39;;;;;;;2.93;2.50;;;;;;;4.28;100.00;97815.75;4975476;28;20673;-77
2024/03/12 03:11:06;;;;;;;3.07;2.67;;;;;;;4.26;100.00;97807.97;4975170;28;20231;-77
2024/03/12 03:13:37;;;;;;;3.77;2.70;;;;;;;4.24;100.00;97812.44;4975427;28;20682;-77
2024/03/12 03:16:06;;;;;;;3.87;2.47;;;;;;;4.21;100.00;97816.97;4975527;28;20218;-77
2024/03/12 03:18:32;;;;;;;3.70;2.43;;;;;;;4.21;100.00;97817.78;4975804;28;20731;-79
2024/03/12 03:20:59;;;;;;;2.40;2.00;;;;;;;4.17;100.00;97826.69;4975158;28;20591;-78
2024/03/12 03:23:25;;;;;;;2.40;2.20;;;;;;;4.18;100.00;97827.56;4975251;28;20213;-77
2024/03/12 03:25:52;;;;;;;3.10;2.80;;;;;;;4.20;100.00;97821.34;4975175;28;20217;-79
2024/03/12 03:28:19;;;;;;;3.53;2.80;;;;;;;4.22;100.00;97824.72;4975391;28;20712;-77
2024/03/12 03:30:45;;;;;;;3.23;2.63;;;;;;;4.19;100.00;97824.88;4974718;28;20234;-77
2024/03/12 03:33:15;;;;;;;3.27;2.93;;;;;;;4.17;100.00;97831.94;4975146;28;20237;-77
2024/03/12 03:35:42;;;;;;;3.57;2.43;;;;;;;4.18;100.00;97832.78;4974900;28;20585;-77
2024/03/12 03:38:09;;;;;;;3.13;2.60;;;;;;;4.21;100.00;97833.47;4974709;28;20221;-77
2024/03/12 03:40:36;;;;;;;3.60;2.97;;;;;;;4.23;100.00;97825.56;4974715;28;20326;-77
2024/03/12 03:43:04;;;;;;;4.53;2.63;;;;;;;4.32;100.00;97831.19;4975153;28;20221;-77
2024/03/12 03:45:31;;;;;;;3.60;2.70;;;;;;;4.41;100.00;97838.56;4975157;28;20218;-78
2024/03/12 03:47:57;;;;;;;5.07;3.13;;;;;;;4.55;100.00;97846.63;4974930;28;20211;-76
2024/03/12 03:50:26;;;;;;;2.70;2.30;;;;;;;4.74;100.00;97839.53;4974738;28;20235;-78
2024/03/12 03:52:53;;;;;;;2.70;2.20;;;;;;;4.92;100.00;97837.72;4975365;28;20217;-78
2024/03/12 03:55:21;;;;;;;3.13;2.43;;;;;;;5.09;100.00;97853.44;4974727;28;20216;-79
2024/03/12 03:57:49;;;;;;;3.53;2.50;;;;;;;5.21;100.00;97852.78;4974577;28;20209;-76
2024/03/12 04:00:16;;;;;;;3.47;2.50;;;;;;;5.32;100.00;97851.28;4974369;28;20685;-76
2024/03/12 04:02:44;;;;;;;3.10;2.60;;;;;;;5.41;100.00;97852.56;4974435;28;20210;-76
2024/03/12 04:05:12;;;;;;;3.63;2.40;;;;;;;5.50;100.00;97857.34;4974225;28;20310;-77
2024/03/12 04:07:40;;;;;;;2.67;2.20;;;;;;;5.63;100.00;97855.75;4974614;28;20218;-77
2024/03/12 04:10:10;;;;;;;2.93;2.30;;;;;;;5.66;100.00;97858.19;4974353;28;20638;-76
2024/03/12 04:12:37;;;;;;;3.00;2.30;;;;;;;5.67;100.00;97860.75;4973412;28;20221;-78
2024/03/12 04:15:04;;;;;;;2.73;2.33;;;;;;;5.70;100.00;97860.59;4974692;28;20233;-78
2024/03/12 04:17:30;;;;;;;3.53;2.37;;;;;;;5.81;100.00;97868.72;4974202;28;20214;-76
2024/03/12 04:19:57;;;;;;;2.40;2.10;;;;;;;5.88;100.00;97861.38;4974012;28;20212;-76
2024/03/12 04:22:26;;;;;;;2.47;1.73;;;;;;;5.89;100.00;97861.31;4973788;28;20243;-77
2024/03/12 04:24:54;;;;;;;3.50;2.17;;;;;;;5.96;100.00;97854.78;4974350;28;20236;-77
2024/03/12 04:27:21;;;;;;;3.33;2.20;;;;;;;5.97;100.00;97860.88;4974275;28;20210;-77
2024/03/12 04:29:47;;;;;;;2.63;2.13;;;;;;;5.99;100.00;97875.59;4974095;28;20690;-76
2024/03/12 04:32:15;;;;;;;3.27;2.10;;;;;;;6.00;100.00;97868.59;4973838;28;20492;-77
2024/03/12 04:34:41;;;;;;;2.27;1.93;;;;;;;6.06;100.00;97876.97;4974140;28;20243;-77
2024/03/12 04:37:08;;;;;;;2.47;1.83;;;;;;;6.08;100.00;97877.72;4974142;28;20222;-77
2024/03/12 04:39:35;;;;;;;2.27;2.07;;;;;;;6.11;100.00;97872.28;4973757;28;20215;-76
2024/03/12 04:42:05;;;;;;;2.67;1.87;;;;;;;6.18;100.00;97873.63;4973484;28;20275;-77
2024/03/12 04:44:32;;;;;;;3.93;2.50;;;;;;;6.17;100.00;97871.94;4973682;28;20259;-77
2024/03/12 04:46:59;;;;;;;2.70;2.00;;;;;;;6.16;100.00;97888.63;4973627;28;20248;-77
2024/03/12 04:49:26;;;;;;;2.13;1.93;;;;;;;6.19;100.00;97887.63;4973980;28;20246;-77
2024/03/12 04:51:53;;;;;;;3.60;2.73;;;;;;;6.08;100.00;97900.47;4973331;28;20240;-77
2024/03/12 04:54:19;;;;;;;3.93;2.40;;;;;;;6.03;100.00;97923.47;4973490;28;20428;-77
2024/03/12 04:56:46;;;;;;;2.50;2.30;;;;;;;5.93;100.00;97919.69;4973691;28;20707;-77
2024/03/12 04:59:15;;;;;;;5.07;2.70;;;;;;;5.90;100.00;97931.19;4982423;28;20519;-77
2024/03/12 05:01:44;;;;;;;3.03;2.50;;;;;;;5.83;100.00;97929.81;4992673;28;20235;-77
2024/03/12 05:04:11;;;;;;;3.47;2.80;;;;;;;5.76;100.00;97938.91;4992238;28;20657;-77
2024/03/12 05:06:38;;;;;;;3.27;2.60;;;;;;;5.76;100.00;97938.91;4979509;28;20215;-77
2024/03/12 05:09:05;;;;;;;4.30;2.90;;;;;;;5.74;100.00;97948.63;4973652;28;20223;-78
2024/03/12 05:11:32;;;;;;;4.07;2.67;;;;;;;5.69;100.00;97953.25;4973480;28;20232;-78
2024/03/12 05:13:59;;;;;;;5.37;2.60;;;;;;;5.64;100.00;97955.31;4973660;28;20596;-77
2024/03/12 05:16:27;;;;;;;4.27;3.10;;;;;;;5.65;100.00;97964.00;4973827;28;20218;-77
2024/03/12 05:18:54;;;;;;;3.50;3.20;;;;;;;5.66;100.00;97960.44;4973489;28;20218;-77
2024/03/12 05:21:21;;;;;;;4.90;3.50;;;;;;;5.70;100.00;97967.22;4973610;28;20227;-77
2024/03/12 05:23:48;;;;;;;4.50;3.27;;;;;;;5.66;100.00;97965.69;4973350;28;20582;-77
2024/03/12 05:26:17;;;;;;;4.57;3.20;;;;;;;5.69;100.00;97969.00;4973782;28;20214;-77
2024/03/12 05:28:43;;;;;;;3.73;2.73;;;;;;;5.71;100.00;97975.03;4973234;28;20315;-77
2024/03/12 05:31:10;;;;;;;3.10;2.80;;;;;;;5.71;100.00;97971.53;4972836;28;20881;-77
2024/03/12 05:33:39;;;;;;;5.30;2.60;;;;;;;5.73;100.00;97980.19;4973064;28;20680;-77
2024/03/12 05:36:09;;;;;;;3.30;2.77;;;;;;;5.75;100.00;97984.41;4972947;28;20682;-78
2024/03/12 05:38:44;;;;;;;4.00;3.27;;;;;;;5.73;100.00;97981.03;4973125;28;20288;-77
2024/03/12 05:41:25;;;;;;;4.37;3.20;;;;;;;5.76;100.00;97980.88;4972812;28;20239;-77
2024/03/12 05:49:33;;;;;;;4.00;2.87;;;;;;;5.78;100.00;97986.88;4972524;28;20741;-77
2024/03/12 05:51:59;;;;;;;3.80;3.40;;;;;;;5.76;100.00;97980.88;4972686;28;20237;-77
2024/03/12 05:54:26;;;;;;;4.07;2.93;;;;;;;5.74;100.00;97987.13;4972729;28;20237;-77
2024/03/12 05:56:52;;;;;;;5.67;3.10;;;;;;;5.78;100.00;97988.63;4972730;28;20650;-77
2024/03/12 05:59:21;;;;;;;3.50;3.20;;;;;;;5.77;100.00;97993.06;4972647;28;20221;-77
2024/03/12 06:01:51;;;;;;;3.67;3.07;;;;;;;5.76;100.00;97996.59;4972735;28;20226;-77
2024/03/12 06:04:17;;;;;;;3.97;3.27;;;;;;;5.82;100.00;97996.31;4972476;28;20225;-77
2024/03/12 06:06:46;;;;;;;3.57;2.93;;;;;;;5.79;100.00;98006.91;4972842;28;20287;-77
2024/03/12 06:09:12;;;;;;;3.73;3.10;;;;;;;5.80;100.00;98008.66;4971325;28;20270;-77
2024/03/12 06:11:39;;;;;;;3.77;3.07;;;;;;;5.78;100.00;98005.22;4972351;28;20231;-77
2024/03/12 06:14:07;;;;;;;3.97;3.07;;;;;;;5.81;100.00;98012.13;4972462;28;20718;-77
2024/03/12 06:16:33;;;;;;;2.97;2.67;;;;;;;5.83;100.00;98005.88;4972395;28;20348;-77
2024/03/12 06:19:00;;;;;;;3.80;3.00;;;;;;;5.82;100.00;98009.44;4972509;28;20215;-77
2024/03/12 06:21:26;;;;;;;4.83;3.40;;;;;;;5.81;100.00;98010.34;4972896;28;20232;-77
2024/03/12 06:23:54;;;;;;;5.50;3.13;;;;;;;5.84;100.00;98012.81;4972405;28;20303;-77
2024/03/12 06:26:21;;;;;;;3.90;3.13;;;;;;;5.89;100.00;98005.56;4972417;28;20213;-77
2024/03/12 06:28:47;;;;;;;3.97;3.03;;;;;;;5.88;100.00;98021.38;4972306;28;20215;-77
2024/03/12 06:31:14;;;;;;;3.77;3.00;;;;;;;5.85;100.00;98024.13;4972041;28;20241;-77
2024/03/12 06:33:42;;;;;;;3.67;3.13;;;;;;;5.84;100.00;98020.69;4972437;28;20213;-77
2024/03/12 06:36:09;;;;;;;3.93;3.50;;;;;;;5.86;100.00;98020.59;4973505;28;20214;-77
2024/03/12 06:38:35;;;;;;;6.30;3.77;;;;;;;5.89;100.00;98023.91;4976001;28;20213;-77
2024/03/12 06:41:07;;;;;;;3.40;3.10;;;;;;;5.93;100.00;98022.81;4975696;28;20241;-77
2024/03/12 06:43:39;;;;;;;3.33;3.03;;;;;;;5.97;100.00;98026.13;4976153;28;20256;-77
2024/03/12 06:46:07;;;;;;;4.23;3.47;;;;;;;6.01;100.00;98028.53;4976844;28;20275;-78
2024/03/12 06:48:35;;;;;;;4.57;3.10;;;;;;;6.01;100.00;98039.00;4979674;28;20274;-81
2024/03/12 06:51:03;;;;;;;3.70;3.10;;;;;;;6.08;100.00;98036.91;4977270;28;20657;-78
2024/03/12 06:53:29;;;;;;;4.73;3.20;;;;;;;6.10;100.00;98045.56;4976565;28;20586;-77
2024/03/12 06:55:57;;;;;;;3.63;3.27;;;;;;;6.13;100.00;98038.38;4976162;28;20710;-77
2024/03/12 06:58:27;;;;;;;4.10;3.63;;;;;;;6.21;100.00;98041.41;4975743;28;20241;-76
2024/03/12 07:00:55;;;;;;;3.50;3.20;;;;;;;6.29;100.00;98046.28;4976063;28;20235;-77
2024/03/12 07:03:22;;;;;;;4.33;3.33;;;;;;;6.37;100.00;98044.06;4981097;28;20267;-78
2024/03/12 07:05:49;;;;;;;4.20;3.27;;;;;;;6.35;100.00;98041.53;5006653;28;20292;-77
2024/03/12 07:08:17;;;;;;;4.30;3.40;;;;;;;6.36;100.00;98048.47;4993913;28;20218;-77
2024/03/12 07:10:43;;;;;;;3.37;2.90;;;;;;;6.38;100.00;98044.00;4983968;28;20255;-78
2024/03/12 07:13:10;;;;;;;3.83;3.00;;;;;;;6.38;100.00;98044.00;4978702;28;20215;-78
2024/03/12 07:15:40;;;;;;;3.23;2.93;;;;;;;6.42;100.00;98050.75;4978005;28;20233;-77
2024/03/12 07:18:07;;;;;;;4.70;3.20;;;;;;;6.46;100.00;98051.44;4978765;28;20208;-77
2024/03/12 07:20:34;;;;;;;3.90;3.40;;;;;;;6.48;100.00;98044.34;4975427;28;20251;-77
2024/03/12 07:23:01;;;;;;;4.27;3.20;;;;;;;6.51;100.00;98055.53;4975257;28;20211;-76
2024/03/12 07:25:27;;;;;;;4.23;3.20;;;;;;;6.55;100.00;98054.44;4975128;28;20209;-77
2024/03/12 07:27:55;;;;;;;3.43;2.80;;;;;;;6.58;100.00;98049.00;4975544;28;20573;-77
2024/03/12 07:30:21;;;;;;;3.80;3.13;;;;;;;6.62;100.00;98047.06;4975798;28;20228;-78
2024/03/12 07:32:49;;;;;;;4.33;3.30;;;;;;;6.67;100.00;98048.53;4975814;28;20261;-77
2024/03/12 07:35:17;;;;;;;3.93;3.23;;;;;;;6.68;100.00;98042.34;4975238;28;20492;-78
2024/03/12 07:37:43;;;;;;;4.17;3.30;;;;;;;6.70;100.00;98044.84;4974261;28;20221;-78
2024/03/12 07:40:11;;;;;;;4.20;3.07;;;;;;;6.70;100.00;98057.97;4974710;28;20249;-77
2024/03/12 07:42:41;;;;;;;4.60;4.07;;;;;;;6.72;100.00;98049.09;4968885;28;20458;-77
2024/03/12 07:45:09;;;;;;;3.57;3.03;;;;;;;6.78;100.00;98053.16;4972788;28;20212;-77
2024/03/12 07:47:36;;;;;;;3.77;2.93;;;;;;;6.79;100.00;98055.69;4972686;28;20266;-77
2024/03/12 07:50:05;;;;;;;4.27;3.03;;;;;;;6.79;100.00;98055.69;4972796;28;20240;-77
2024/03/12 07:52:31;;;;;;;3.43;2.77;;;;;;;6.81;100.00;98058.25;4973010;28;20212;-77
2024/03/12 07:54:59;;;;;;;3.50;3.20;;;;;;;6.83;100.00;98061.66;4973286;28;20231;-77
2024/03/12 07:57:26;;;;;;;3.63;2.93;;;;;;;6.88;100.00;98063.06;4973472;28;20268;-77
2024/03/12 07:59:53;;;;;;;2.90;2.60;;;;;;;6.94;100.00;98077.63;4973928;28;20212;-77
2024/03/12 08:02:21;;;;;;;3.37;2.63;;;;;;;6.97;100.00;98070.44;4973572;28;20701;-77
2024/03/12 08:04:48;;;;;;;3.53;2.67;;;;;;;7.02;100.00;98071.03;4973469;28;20220;-77
2024/03/12 08:07:19;;;;;;;5.20;2.47;;;;;;;7.05;100.00;98075.28;4973379;28;20672;-77
2024/03/12 08:09:47;;;;;;;2.47;2.10;;;;;;;7.10;100.00;98074.09;4977664;28;20302;-79
2024/03/12 08:12:14;;;;;;;2.50;2.10;;;;;;;7.13;100.00;98087.03;4977442;28;20244;-79
2024/03/12 08:14:41;;;;;;;2.27;2.00;;;;;;;7.16;100.00;98079.00;4975303;28;20738;-77
2024/03/12 08:17:08;;;;;;;2.23;2.03;;;;;;;7.22;100.00;98081.28;4973120;28;20214;-77
2024/03/12 08:19:36;;;;;;;2.00;1.80;;;;;;;7.28;100.00;98091.47;4973947;28;20266;-77
2024/03/12 08:22:03;;;;;;;2.23;1.77;;;;;;;7.32;100.00;98087.69;4973279;28;20241;-76
2024/03/12 08:24:32;;;;;;;2.03;1.87;;;;;;;7.40;100.00;98085.47;4973731;28;20217;-76
2024/03/12 08:26:58;;;;;;;1.77;1.60;;;;;;;7.48;100.00;98083.25;4973747;28;20577;-77
2024/03/12 08:29:26;;;;;;;1.50;1.40;;;;;;;7.52;100.00;98085.63;4973828;28;20300;-77
2024/03/12 08:31:53;;;;;;;2.13;1.40;;;;;;;7.55;100.00;98077.56;4973530;28;20317;-76
2024/03/12 08:34:20;;;;;;;1.93;1.10;;;;;;;7.62;100.00;98075.41;4973848;28;20289;-76
2024/03/12 08:36:47;;;;;;;1.50;1.40;;;;;;;7.71;100.00;98069.63;4973424;28;20210;-77
2024/03/12 08:39:14;;;;;;;2.47;1.30;;;;;;;7.76;100.00;98072.81;4973460;28;20208;-76
2024/03/12 08:41:42;;;;;;;2.27;1.20;;;;;;;7.72;100.00;98081.84;4973177;28;20331;-77
2024/03/12 08:44:10;;;;;;;1.37;1.27;;;;;;;7.72;100.00;98076.59;4973546;28;20210;-77
2024/03/12 08:46:37;;;;;;;2.73;1.40;;;;;;;7.71;100.00;98083.63;4973414;28;20228;-77
2024/03/12 08:49:05;;;;;;;1.80;1.50;;;;;;;7.78;100.00;98082.31;4973516;28;20257;-77
2024/03/12 08:51:35;;;;;;;1.90;1.30;;;;;;;7.79;100.00;98088.44;4973132;28;20234;-77
2024/03/12 08:54:03;;;;;;;2.23;1.30;;;;;;;7.79;100.00;98084.00;4973340;28;20303;-77
2024/03/12 08:56:30;;;;;;;2.27;1.20;;;;;;;7.80;100.00;98095.38;4972993;28;20237;-77
2024/03/12 08:58:59;;;;;;;1.90;1.27;;;;;;;7.81;100.00;98091.81;4971984;28;20212;-77
2024/03/12 09:01:26;;;;;;;1.97;1.30;;;;;;;7.85;100.00;98093.34;4973143;28;20244;-77
2024/03/12 09:03:53;;;;;;;1.60;1.40;;;;;;;7.90;100.00;98096.56;4973067;28;20702;-77
2024/03/12 09:06:20;;;;;;;1.60;1.27;;;;;;;7.98;100.00;98099.56;4973460;28;20666;-77
2024/03/12 09:08:49;;;;;;;2.03;1.20;;;;;;;8.00;100.00;98103.81;4984680;28;20215;-76
2024/03/12 09:11:17;;;;;;;2.00;1.40;;;;;;;8.08;100.00;98095.47;4988157;28;20251;-77
2024/03/12 09:13:44;;;;;;;1.90;1.23;;;;;;;8.20;100.00;98094.75;4986621;28;20361;-77
2024/03/12 09:16:13;;;;;;;2.20;1.13;;;;;;;8.24;100.00;98097.09;4973411;28;20280;-77
2024/03/12 09:18:42;;;;;;;1.80;1.30;;;;;;;8.32;100.00;98094.03;4972467;28;20702;-77
2024/03/12 09:21:09;;;;;;;2.80;1.20;;;;;;;8.44;100.00;98099.38;4972827;28;20287;-77
2024/03/12 09:23:36;;;;;;;1.53;1.20;;;;;;;8.54;100.00;98094.38;4972788;28;20212;-77
2024/03/12 09:26:04;;;;;;;2.60;1.17;;;;;;;8.58;100.00;98103.78;4972270;28;20213;-77
2024/03/12 09:28:30;;;;;;;1.90;1.47;;;;;;;8.59;100.00;98101.06;4972616;28;20217;-77
2024/03/12 09:30:57;;;;;;;1.77;1.20;;;;;;;8.62;100.00;98103.50;4970961;28;20235;-77
2024/03/12 09:33:26;;;;;;;1.63;1.23;;;;;;;8.61;100.00;98106.22;4958750;28;20217;-77
2024/03/12 09:35:53;;;;;;;2.47;1.60;;;;;;;8.63;100.00;98105.19;4967818;28;20237;-77
2024/03/12 09:38:20;;;;;;;1.83;1.43;;;;;;;8.65;100.00;98103.34;4968587;28;20211;-77
2024/03/12 09:40:47;;;;;;;1.73;1.47;;;;;;;8.62;100.00;98100.03;4970011;28;20255;-77
2024/03/12 09:43:16;;;;;;;3.43;1.80;;;;;;;8.62;100.00;98094.78;4971649;28;20308;-77
2024/03/12 09:45:44;;;;;;;3.05;2.10;;;;;;;8.60;100.00;98102.75;4971975;28;20432;-76
2024/03/12 09:48:13;;;;;;;3.63;1.70;;;;;;;8.66;100.00;98106.78;4972820;28;20214;-76
2024/03/12 09:50:41;;;;;;;5.50;2.10;;;;;;;8.63;100.00;98110.47;4972510;28;20260;-76
2024/03/12 09:53:08;;;;;;;3.17;1.70;;;;;;;8.72;100.00;98109.03;4972773;28;20236;-78
2024/03/12 09:55:36;;;;;;;3.33;2.17;;;;;;;8.79;100.00;98113.00;4972890;28;20230;-77
2024/03/12 09:58:05;;;;;;;4.47;2.40;;;;;;;8.84;100.00;98103.00;4972282;28;20317;-76
2024/03/12 10:00:33;;;;;;;3.20;1.80;;;;;;;8.90;100.00;98102.63;4972281;28;20297;-77
2024/03/12 10:03:00;;;;;;;2.83;2.03;;;;;;;8.87;100.00;98113.38;4972777;28;20245;-76
2024/03/12 10:05:27;;;;;;;3.97;2.10;;;;;;;8.84;100.00;98114.41;4972411;28;20213;-76
2024/03/12 10:08:12;;;;;;;4.47;2.40;;;;;;;8.81;100.00;98125.13;4972715;28;20342;-76
2024/03/12 10:10:40;;;;;;;4.27;2.47;;;;;;;8.71;100.00;98134.56;4972712;28;20225;-76
2024/03/12 10:13:08;;;;;;;5.47;2.60;;;;;;;8.59;100.00;98135.31;4976771;28;20210;-77
2024/03/12 10:15:36;;;;;;;3.53;2.17;;;;;;;8.56;100.00;98137.28;4976730;28;20601;-76
2024/03/12 10:18:06;;;;;;;3.90;1.90;;;;;;;8.64;100.00;98135.84;4976175;28;20217;-77
2024/03/12 10:20:45;;;;;;;4.67;2.20;;;;;;;8.68;100.00;98128.59;4976348;28;20575;-76
2024/03/12 10:23:15;;;;;;;3.40;1.77;;;;;;;8.75;100.00;98132.59;4976660;28;20216;-77
2024/03/12 10:25:42;;;;;;;4.40;2.43;;;;;;;8.81;100.00;98140.13;4976190;28;20304;-77
2024/03/12 10:28:09;;;;;;;3.70;1.90;;;;;;;8.90;100.00;98136.91;4976583;28;20211;-77
2024/03/12 10:30:36;;;;;;;2.53;1.87;;;;;;;9.09;100.00;98124.25;4976041;28;20233;-77
2024/03/12 10:33:12;;;;;;;3.57;1.90;;;;;;;9.38;100.00;98131.16;4976355;28;20222;-77
2024/03/12 10:35:41;;;;;;;3.47;1.90;;;;;;;9.51;100.00;98121.50;4976171;28;20285;-76
2024/03/12 10:38:11;;;;;;;1.93;1.30;;;;;;;9.58;100.00;98113.09;4976107;28;20249;-76
2024/03/12 10:40:39;;;;;;;2.73;1.80;;;;;;;9.82;100.00;98121.16;4975796;28;20317;-77
2024/03/12 10:43:08;;;;;;;3.00;1.87;;;;;;;9.95;99.78;98103.56;4976068;28;20253;-77
2024/03/12 10:45:35;;;;;;;3.40;2.00;;;;;;;10.02;99.61;98104.84;4976163;28;20671;-77
2024/03/12 10:48:06;;;;;;;2.53;1.67;;;;;;;9.94;99.29;98104.50;4991074;28;20559;-77
2024/03/12 10:50:34;;;;;;;3.33;1.83;;;;;;;9.83;99.39;98102.59;4975900;28;20250;-77
2024/03/12 10:53:01;;;;;;;3.23;1.80;;;;;;;9.72;100.00;98126.22;4976264;28;20253;-77
2024/03/12 10:55:32;;;;;;;2.20;1.90;;;;;;;9.71;100.00;98134.22;4975737;28;20244;-77
2024/03/12 10:58:03;;;;;;;3.80;1.87;;;;;;;9.53;100.00;98122.22;4975891;28;20217;-76
2024/03/12 11:00:30;;;;;;;3.20;2.10;;;;;;;9.49;100.00;98136.59;4975563;28;20333;-78
2024/03/12 11:02:57;;;;;;;2.33;1.63;;;;;;;9.44;100.00;98141.31;4976610;28;20732;-79
2024/03/12 11:05:26;;;;;;;3.87;2.00;;;;;;;9.39;100.00;98143.38;4976914;28;20219;-76
2024/03/12 11:07:55;;;;;;;3.67;2.10;;;;;;;9.36;100.00;98148.88;4975813;28;20549;-76
2024/03/12 11:10:22;;;;;;;3.33;1.63;;;;;;;9.29;100.00;98151.03;4975401;28;20231;-77
2024/03/12 11:12:48;;;;;;;3.10;1.90;;;;;;;9.31;100.00;98154.41;4985509;28;20223;-77
2024/03/12 11:15:20;;;;;;;2.77;2.10;;;;;;;9.30;100.00;98150.09;4989425;28;20747;-76
2024/03/12 11:17:48;;;;;;;2.73;1.77;;;;;;;9.26;100.00;98156.53;4985533;28;20233;-76
2024/03/12 11:20:19;;;;;;;3.47;1.90;;;;;;;9.28;100.00;98151.13;4975495;28;20217;-76
2024/03/12 11:22:46;;;;;;;3.20;2.17;;;;;;;9.29;100.00;98158.09;4974728;28;20211;-77
2024/03/12 11:25:17;;;;;;;1.47;1.33;;;;;;;9.25;100.00;98161.91;4975213;28;20210;-76
2024/03/12 11:27:44;;;;;;;3.10;1.70;;;;;;;9.27;100.00;98160.84;4975460;28;20224;-76
2024/03/12 11:30:19;;;;;;;3.37;2.10;;;;;;;9.29;100.00;98160.75;4974990;28;20281;-76
2024/03/12 11:32:49;;;;;;;3.73;2.10;;;;;;;9.17;100.00;98143.91;4975374;28;20261;-76
2024/03/12 11:35:31;;;;;;;3.90;2.27;;;;;;;9.15;100.00;98145.81;4974007;28;20203;-76
2024/03/12 11:38:06;;;;;;;2.37;1.73;;;;;;;9.21;100.00;98155.13;4975373;28;20249;-77
2024/03/12 11:40:36;;;;;;;1.83;1.47;;;;;;;9.21;100.00;98149.84;4975110;28;20237;-76
2024/03/12 11:43:03;;;;;;;2.20;1.33;;;;;;;9.24;100.00;98150.50;4975132;28;20283;-77